Time;durP1;ratioP1;P1;durP2;ratioP2;P2;SDS_P1;SDS_P2;PMS_P1;PMS_P2;Temp;Humidity;BMP_temperature;BMP_pressure;BME280_temperature;BME280_humidity;BME280_pressure;Samples;Min_cycle;Max_cycle;Signal;HPM_P1;HPM_P2
2021/12/27 00:01:04;;;;;;;71.55;27.17;;;;;;;-0.02;100.00;100323.00;5050474;28;20036;-85
2021/12/27 00:03:30;;;;;;;72.47;28.13;;;;;;;0.00;100.00;100317.72;5050064;28;20060;-84
2021/12/27 00:05:55;;;;;;;66.88;28.70;;;;;;;0.01;100.00;100314.16;5051362;28;20117;-85
2021/12/27 00:08:23;;;;;;;63.90;27.80;;;;;;;0.01;100.00;100314.16;5051497;28;20064;-85
2021/12/27 00:10:48;;;;;;;69.07;28.98;;;;;;;0.03;100.00;100317.53;5051042;28;20037;-84
2021/12/27 00:13:13;;;;;;;72.95;29.90;;;;;;;0.05;100.00;100309.63;5050837;28;20037;-85
2021/12/27 00:15:39;;;;;;;80.88;34.63;;;;;;;0.07;100.00;100310.38;5050054;28;20029;-83
2021/12/27 00:18:05;;;;;;;68.05;28.10;;;;;;;0.09;100.00;100301.50;5050035;28;20029;-83
2021/12/27 00:20:32;;;;;;;72.40;28.38;;;;;;;0.11;100.00;100296.19;5051399;28;20043;-83
2021/12/27 00:22:57;;;;;;;61.58;27.88;;;;;;;0.12;100.00;100292.63;5051220;28;20071;-83
2021/12/27 00:25:23;;;;;;;65.68;28.58;;;;;;;0.13;100.00;100291.69;5051397;28;20195;-83
2021/12/27 00:27:48;;;;;;;71.30;28.15;;;;;;;0.15;100.00;100292.44;5049933;28;20116;-83
2021/12/27 00:30:20;;;;;;;65.38;28.52;;;;;;;0.16;100.00;100284.53;5051449;28;20036;-83
2021/12/27 00:32:46;;;;;;;69.25;27.77;;;;;;;0.19;100.00;100286.13;5053155;28;20409;-83
2021/12/27 00:35:13;;;;;;;68.05;27.40;;;;;;;0.20;100.00;100282.59;5055516;28;20449;-82
2021/12/27 00:37:39;;;;;;;63.63;28.48;;;;;;;0.21;100.00;100272.97;5054751;28;20473;-83
2021/12/27 00:40:06;;;;;;;61.47;27.98;;;;;;;0.21;100.00;100273.81;5053978;28;20064;-83
2021/12/27 00:42:31;;;;;;;67.00;28.15;;;;;;;0.22;100.00;100261.56;5056131;28;20033;-82
2021/12/27 00:44:57;;;;;;;62.80;26.83;;;;;;;0.21;100.00;100263.34;5057835;28;20370;-82
2021/12/27 00:47:22;;;;;;;59.88;27.92;;;;;;;0.23;100.00;100258.03;5055148;28;20029;-82
2021/12/27 00:49:47;;;;;;;74.50;28.70;;;;;;;0.22;100.00;100257.16;5053007;28;20115;-82
2021/12/27 00:52:13;;;;;;;67.30;28.23;;;;;;;0.23;100.00;100260.66;5053569;28;20072;-82
2021/12/27 00:54:38;;;;;;;68.85;28.80;;;;;;;0.24;100.00;100250.09;5053178;28;20071;-82
2021/12/27 00:57:04;;;;;;;69.68;27.95;;;;;;;0.27;100.00;100238.59;5054653;28;20115;-82
2021/12/27 00:59:29;;;;;;;73.53;28.98;;;;;;;0.28;100.00;100240.28;5053169;28;20078;-82
2021/12/27 01:01:56;;;;;;;69.68;27.75;;;;;;;0.28;100.00;100241.09;5054109;28;20067;-81
2021/12/27 01:04:21;;;;;;;67.15;28.52;;;;;;;0.30;100.00;100239.28;5054443;28;20473;-81
2021/12/27 01:06:47;;;;;;;78.35;30.02;;;;;;;0.30;100.00;100236.66;5054162;28;20081;-81
2021/12/27 01:09:20;;;;;;;78.28;28.67;;;;;;;0.31;100.00;100237.47;5054486;28;20473;-80
2021/12/27 01:14:41;;;;;;;75.75;28.95;;;;;;;0.36;100.00;100227.63;5054352;28;20056;-81
2021/12/27 01:17:06;;;;;;;74.82;29.38;;;;;;;0.38;100.00;100235.38;5054544;28;20036;-80
2021/12/27 01:19:32;;;;;;;80.32;30.58;;;;;;;0.38;100.00;100233.59;5054306;28;20078;-80
2021/12/27 01:21:57;;;;;;;68.07;28.55;;;;;;;0.40;100.00;100228.25;5052503;28;20386;-81
2021/12/27 01:24:23;;;;;;;79.75;29.75;;;;;;;0.38;100.00;100217.88;5054085;28;20033;-81
2021/12/27 01:26:48;;;;;;;76.07;29.63;;;;;;;0.41;100.00;100224.72;5053688;28;20036;-81
2021/12/27 01:29:14;;;;;;;70.10;27.95;;;;;;;0.42;100.00;100218.53;5054143;28;20081;-81
2021/12/27 01:31:39;;;;;;;68.93;27.73;;;;;;;0.41;100.00;100215.09;5054088;28;20035;-81
2021/12/27 01:34:05;;;;;;;77.82;29.55;;;;;;;0.43;100.00;100213.22;5053770;28;20497;-81
2021/12/27 01:36:32;;;;;;;71.85;28.27;;;;;;;0.46;100.00;100210.44;5054167;28;20037;-81
2021/12/27 01:38:59;;;;;;;81.82;29.77;;;;;;;0.47;100.00;100204.25;5053484;28;20029;-81
2021/12/27 01:41:24;;;;;;;85.93;30.23;;;;;;;0.48;100.00;100205.94;5052598;28;20496;-82
2021/12/27 01:43:50;;;;;;;78.95;30.15;;;;;;;0.50;100.00;100208.47;5052623;28;20033;-81
2021/12/27 01:46:18;;;;;;;105.95;32.25;;;;;;;0.53;100.00;100218.75;5053895;28;20040;-82
2021/12/27 01:48:53;;;;;;;84.53;31.17;;;;;;;0.58;100.00;100218.50;5053218;28;20049;-81
2021/12/27 01:51:19;;;;;;;82.80;30.08;;;;;;;0.58;100.00;100208.84;5053960;28;20028;-81
2021/12/27 01:53:46;;;;;;;85.90;31.25;;;;;;;0.59;100.00;100212.34;5053187;28;20188;-82
2021/12/27 01:56:13;;;;;;;80.93;30.52;;;;;;;0.61;100.00;100200.84;5053630;28;20067;-81
2021/12/27 01:58:39;;;;;;;87.10;32.42;;;;;;;0.62;100.00;100214.78;5052349;28;20025;-80
2021/12/27 02:01:07;;;;;;;81.45;31.05;;;;;;;0.65;100.00;100218.03;5052956;28;20544;-80
2021/12/27 02:03:33;;;;;;;83.60;32.33;;;;;;;0.69;100.00;100227.41;5053569;28;20032;-80
2021/12/27 02:06:00;;;;;;;73.95;29.58;;;;;;;0.72;100.00;100226.38;5053174;28;20052;-80
2021/12/27 02:08:27;;;;;;;76.72;29.80;;;;;;;0.73;100.00;100225.44;5053479;28;20037;-80
2021/12/27 02:10:52;;;;;;;71.25;29.35;;;;;;;0.72;100.00;100215.06;5053287;28;20071;-80
2021/12/27 02:13:18;;;;;;;77.57;29.40;;;;;;;0.72;100.00;100213.28;5052264;28;20048;-80
2021/12/27 02:15:44;;;;;;;79.65;29.00;;;;;;;0.74;100.00;100224.50;5053374;28;20083;-80
2021/12/27 02:18:10;;;;;;;79.45;29.63;;;;;;;0.75;100.00;100217.47;5052685;28;20044;-80
2021/12/27 02:20:37;;;;;;;71.05;29.00;;;;;;;0.76;100.00;100220.03;5051917;28;20090;-80
2021/12/27 02:23:11;;;;;;;72.05;27.80;;;;;;;0.77;100.00;100221.72;5052810;28;20064;-79
2021/12/27 02:25:36;;;;;;;64.30;27.08;;;;;;;0.80;100.00;100220.69;5053469;28;20388;-80
2021/12/27 02:28:04;;;;;;;75.10;28.70;;;;;;;0.81;100.00;100220.59;5052699;28;20071;-80
2021/12/27 02:30:30;;;;;;;73.20;29.42;;;;;;;0.82;100.00;100219.69;5051965;28;20038;-81
2021/12/27 02:33:05;;;;;;;70.95;28.67;;;;;;;0.85;100.00;100216.00;5052742;28;20459;-80
2021/12/27 02:35:32;;;;;;;65.45;26.92;;;;;;;0.87;100.00;100214.16;5052998;28;20388;-80
2021/12/27 02:38:00;;;;;;;68.80;26.95;;;;;;;0.86;100.00;100218.53;5052346;28;20025;-80
2021/12/27 02:40:27;;;;;;;73.47;27.88;;;;;;;0.87;100.00;100214.97;5052996;28;20024;-80
2021/12/27 02:42:52;;;;;;;63.90;27.58;;;;;;;0.88;100.00;100215.81;5051346;28;20397;-81
2021/12/27 02:45:18;;;;;;;64.32;26.42;;;;;;;0.90;100.00;100213.97;5053177;28;20043;-80
2021/12/27 02:47:43;;;;;;;65.47;27.25;;;;;;;0.91;100.00;100215.66;5052996;28;20036;-79
2021/12/27 02:50:09;;;;;;;64.10;25.77;;;;;;;0.93;100.00;100211.16;5052464;28;20136;-80
2021/12/27 02:52:34;;;;;;;69.65;26.88;;;;;;;0.96;100.00;100203.13;5052800;28;20389;-80
2021/12/27 02:54:59;;;;;;;55.00;24.58;;;;;;;0.98;100.00;100203.03;5052689;28;20075;-80
2021/12/27 02:57:25;;;;;;;58.90;25.95;;;;;;;0.99;100.00;100194.22;5052849;28;20488;-80
2021/12/27 02:59:50;;;;;;;66.43;26.65;;;;;;;0.99;100.00;100187.22;5051619;28;20393;-80
2021/12/27 03:02:16;;;;;;;63.03;24.30;;;;;;;1.00;100.00;100196.75;5052731;28;20460;-79
2021/12/27 03:04:45;;;;;;;58.33;24.67;;;;;;;1.01;100.00;100185.31;5052779;28;20532;-79
2021/12/27 03:07:11;;;;;;;67.82;25.00;;;;;;;1.03;100.00;100180.00;5052455;28;20041;-80
2021/12/27 03:09:38;;;;;;;61.40;25.45;;;;;;;1.01;100.00;100172.22;5052952;28;20091;-79
2021/12/27 03:12:04;;;;;;;62.53;25.45;;;;;;;1.02;100.00;100168.69;5052343;28;20040;-79
2021/12/27 03:14:29;;;;;;;64.20;25.17;;;;;;;1.01;100.00;100169.59;5052995;28;20458;-80
2021/12/27 03:16:55;;;;;;;64.15;25.73;;;;;;;1.02;100.00;100173.91;5052513;28;20041;-83
2021/12/27 03:19:21;;;;;;;62.05;24.02;;;;;;;1.02;100.00;100166.06;5052334;28;20043;-80
2021/12/27 03:21:46;;;;;;;71.55;24.73;;;;;;;1.01;100.00;100164.38;5052327;28;20032;-80
2021/12/27 03:24:11;;;;;;;76.30;26.38;;;;;;;1.02;100.00;100157.38;5052945;28;20479;-81
2021/12/27 03:26:37;;;;;;;60.85;25.23;;;;;;;1.04;100.00;100158.09;5054661;28;20029;-80
2021/12/27 03:29:02;;;;;;;60.53;24.48;;;;;;;1.04;100.00;100158.09;5069799;28;20029;-81
2021/12/27 03:31:28;;;;;;;60.63;24.27;;;;;;;1.04;100.00;100160.72;5066546;28;20149;-79
2021/12/27 03:33:55;;;;;;;67.35;26.50;;;;;;;1.04;100.00;100151.06;5052604;28;20378;-79
2021/12/27 03:36:23;;;;;;;60.05;25.45;;;;;;;1.05;100.00;100146.69;5051897;28;20083;-80
2021/12/27 03:38:52;;;;;;;66.85;24.92;;;;;;;1.04;100.00;100143.22;5052256;28;20083;-80
2021/12/27 03:41:21;;;;;;;72.05;25.27;;;;;;;1.05;100.00;100146.69;5051855;28;20567;-80
2021/12/27 03:43:46;;;;;;;73.28;25.23;;;;;;;1.04;100.00;100143.22;5052119;28;20083;-80
2021/12/27 03:46:13;;;;;;;59.78;23.50;;;;;;;1.04;100.00;100148.44;5051545;28;20053;-81
2021/12/27 03:48:38;;;;;;;56.22;23.80;;;;;;;1.05;100.00;100158.00;5052028;28;20122;-80
2021/12/27 03:51:05;;;;;;;67.55;25.48;;;;;;;1.04;100.00;100151.06;5051483;28;20473;-80
2021/12/27 03:53:32;;;;;;;74.80;26.17;;;;;;;1.05;100.00;100149.31;5052072;28;20047;-80
2021/12/27 03:55:57;;;;;;;67.38;25.33;;;;;;;1.08;100.00;100150.91;5051919;28;20033;-81
2021/12/27 03:58:27;;;;;;;75.65;27.00;;;;;;;1.10;100.00;100154.28;5033614;28;20036;-81
2021/12/27 04:03:37;;;;;;;66.47;25.63;;;;;;;1.12;100.00;100140.16;5052070;28;20120;-81
2021/12/27 04:06:02;;;;;;;61.85;25.27;;;;;;;1.13;100.00;100130.50;5052070;28;20056;-81
2021/12/27 04:08:27;;;;;;;78.28;25.88;;;;;;;1.13;100.00;100128.69;5054515;28;20028;-80
2021/12/27 04:10:54;;;;;;;70.38;25.80;;;;;;;1.14;100.00;100135.63;5038082;28;20032;-80
2021/12/27 04:13:21;;;;;;;70.85;25.30;;;;;;;1.14;100.00;100124.31;5055200;28;20072;-79
2021/12/27 04:15:48;;;;;;;69.82;26.02;;;;;;;1.17;100.00;100134.63;5055584;28;20387;-80
2021/12/27 04:18:14;;;;;;;71.63;27.60;;;;;;;1.18;100.00;100120.56;5055110;28;20107;-80
2021/12/27 04:20:40;;;;;;;74.28;26.40;;;;;;;1.20;100.00;100110.84;5055449;28;20037;-79
2021/12/27 04:23:06;;;;;;;77.95;26.23;;;;;;;1.21;100.00;100109.91;5055126;28;20040;-80
2021/12/27 04:25:31;;;;;;;87.18;29.25;;;;;;;1.22;100.00;100115.03;5055391;28;20033;-80
2021/12/27 04:27:57;;;;;;;73.45;27.90;;;;;;;1.23;100.00;100118.50;5055390;28;20029;-79
2021/12/27 04:30:22;;;;;;;86.53;30.02;;;;;;;1.24;100.00;100117.56;5054785;28;20029;-80
2021/12/27 04:32:49;;;;;;;94.85;30.15;;;;;;;1.26;100.00;100113.06;5053764;28;20392;-81
2021/12/27 04:35:16;;;;;;;92.15;31.15;;;;;;;1.28;100.00;100105.94;5053647;28;20051;-80
2021/12/27 04:37:43;;;;;;;122.45;31.85;;;;;;;1.33;100.00;100103.00;5054052;28;20032;-80
2021/12/27 04:40:11;;;;;;;128.82;33.42;;;;;;;1.35;100.00;100104.59;5054780;28;20025;-80
2021/12/27 04:42:39;;;;;;;101.78;30.67;;;;;;;1.38;100.00;100100.97;5054040;28;20473;-80
2021/12/27 04:45:05;;;;;;;126.53;32.45;;;;;;;1.39;100.00;100100.84;5054894;28;20025;-80
2021/12/27 04:47:31;;;;;;;106.15;31.77;;;;;;;1.40;100.00;100097.31;5054132;28;20029;-83
2021/12/27 04:49:56;;;;;;;143.35;33.67;;;;;;;1.41;100.00;100092.91;5055245;28;20113;-80
2021/12/27 04:52:22;;;;;;;98.03;33.55;;;;;;;1.43;100.00;100098.88;5054569;28;20033;-81
2021/12/27 04:54:47;;;;;;;102.68;32.20;;;;;;;1.46;100.00;100101.28;5055242;28;20106;-80
2021/12/27 04:57:13;;;;;;;105.55;33.33;;;;;;;1.49;100.00;100095.84;5053453;28;20043;-81
2021/12/27 04:59:38;;;;;;;145.70;36.08;;;;;;;1.52;100.00;100095.69;5055136;28;20033;-81
2021/12/27 05:02:04;;;;;;;128.23;33.92;;;;;;;1.54;100.00;100091.16;5054682;28;20025;-81
2021/12/27 05:04:30;;;;;;;123.00;34.50;;;;;;;1.56;100.00;100083.19;5054384;28;20083;-81
2021/12/27 05:06:55;;;;;;;138.18;35.03;;;;;;;1.58;100.00;100089.16;5054774;28;20041;-81
2021/12/27 05:09:21;;;;;;;116.85;34.33;;;;;;;1.58;100.00;100087.41;5054475;28;20067;-80
2021/12/27 05:11:46;;;;;;;100.75;33.15;;;;;;;1.59;100.00;100078.59;5054792;28;20444;-80
2021/12/27 05:14:12;;;;;;;136.05;32.50;;;;;;;1.61;100.00;100078.47;5054115;28;20116;-82
2021/12/27 05:16:37;;;;;;;122.85;33.45;;;;;;;1.61;100.00;100069.78;5053135;28;20083;-82
2021/12/27 05:19:02;;;;;;;115.53;33.70;;;;;;;1.62;100.00;100069.69;5054178;28;20044;-81
2021/12/27 05:21:28;;;;;;;115.57;32.83;;;;;;;1.63;100.00;100071.38;5054263;28;20036;-81
2021/12/27 05:23:53;;;;;;;161.57;34.17;;;;;;;1.65;100.00;100076.50;5054369;28;20035;-81
2021/12/27 05:26:19;;;;;;;111.47;33.17;;;;;;;1.67;100.00;100072.88;5054526;28;20072;-81
2021/12/27 05:28:44;;;;;;;122.00;33.35;;;;;;;1.70;100.00;100066.53;5054658;28;20456;-81
2021/12/27 05:31:10;;;;;;;114.78;33.80;;;;;;;1.69;100.00;100063.09;5054265;28;20037;-81
2021/12/27 05:33:36;;;;;;;136.82;34.45;;;;;;;1.70;100.00;100050.81;5052402;28;20386;-81
2021/12/27 05:36:01;;;;;;;147.95;35.92;;;;;;;1.72;100.00;100049.78;5053183;28;20044;-81
2021/12/27 05:38:26;;;;;;;151.23;33.60;;;;;;;1.73;100.00;100054.09;5053737;28;20066;-82
2021/12/27 05:40:54;;;;;;;267.73;37.72;;;;;;;1.76;100.00;100061.75;5054351;28;20105;-81
2021/12/27 05:43:20;;;;;;;131.35;35.78;;;;;;;1.80;100.00;100053.69;5053691;28;20128;-82
2021/12/27 05:45:45;;;;;;;143.90;37.08;;;;;;;1.83;100.00;100058.72;5052985;28;20037;-81
2021/12/27 05:48:11;;;;;;;120.93;35.78;;;;;;;1.84;100.00;100056.00;5053787;28;20059;-81
2021/12/27 05:50:37;;;;;;;176.80;36.00;;;;;;;1.85;100.00;100057.69;5053743;28;20029;-80
2021/12/27 05:53:03;;;;;;;184.98;40.25;;;;;;;1.89;100.00;100072.25;5052818;28;20049;-80
2021/12/27 05:55:29;;;;;;;230.65;39.75;;;;;;;1.97;100.00;100073.53;5053883;28;20083;-80
2021/12/27 05:57:55;;;;;;;256.58;42.63;;;;;;;2.02;100.00;100074.91;5052628;28;20037;-82
2021/12/27 06:00:21;;;;;;;231.60;41.33;;;;;;;2.06;100.00;100084.28;5053453;28;20040;-81
2021/12/27 06:02:46;;;;;;;143.57;36.75;;;;;;;2.07;100.00;100080.69;5053425;28;20461;-80
2021/12/27 06:05:13;;;;;;;237.88;40.03;;;;;;;2.09;100.00;100072.69;5052497;28;20029;-80
2021/12/27 06:07:38;;;;;;;156.82;37.30;;;;;;;2.10;100.00;100077.84;5052969;28;20096;-81
2021/12/27 06:10:05;;;;;;;190.65;38.28;;;;;;;2.11;100.00;100076.91;5053316;28;20507;-81
2021/12/27 06:12:32;;;;;;;136.43;37.22;;;;;;;2.14;100.00;100075.03;5052383;28;20033;-80
2021/12/27 06:14:58;;;;;;;184.07;39.05;;;;;;;2.14;100.00;100072.41;5052106;28;20091;-80
2021/12/27 06:17:23;;;;;;;219.90;39.22;;;;;;;2.16;100.00;100070.53;5052541;28;20058;-81
2021/12/27 06:19:49;;;;;;;155.93;39.28;;;;;;;2.18;100.00;100061.59;5053275;28;20048;-80
2021/12/27 06:22:15;;;;;;;240.95;39.72;;;;;;;2.21;100.00;100065.78;5052038;28;20541;-82
2021/12/27 06:24:40;;;;;;;163.73;38.08;;;;;;;2.21;100.00;100065.78;5034712;28;20033;-80
2021/12/27 06:27:06;;;;;;;143.68;36.72;;;;;;;2.21;100.00;100064.03;5053102;28;20056;-80
2021/12/27 06:29:31;;;;;;;143.95;36.90;;;;;;;2.20;100.00;100059.72;5050587;28;20047;-81
2021/12/27 06:31:56;;;;;;;185.40;36.28;;;;;;;2.19;100.00;100065.06;5052809;28;20171;-81
2021/12/27 06:34:22;;;;;;;148.77;36.33;;;;;;;2.19;100.00;100072.94;5052740;28;20366;-85
2021/12/27 06:36:47;;;;;;;162.15;36.53;;;;;;;2.18;100.00;100072.09;5052576;28;20452;-80
2021/12/27 06:39:13;;;;;;;153.13;36.45;;;;;;;2.20;100.00;100064.13;5051315;28;20033;-80
2021/12/27 06:41:39;;;;;;;165.10;38.25;;;;;;;2.20;100.00;100064.97;5051962;28;20033;-79
2021/12/27 06:44:05;;;;;;;151.07;35.53;;;;;;;2.22;100.00;100064.84;5051370;28;20029;-75
2021/12/27 06:46:30;;;;;;;171.68;36.35;;;;;;;2.23;100.00;100061.28;5051678;28;20051;-75
2021/12/27 06:48:55;;;;;;;162.73;37.15;;;;;;;2.21;100.00;100064.03;5050960;28;20087;-75
2021/12/27 06:51:21;;;;;;;154.35;36.28;;;;;;;2.22;100.00;100065.69;5052057;28;20029;-73
2021/12/27 06:53:47;;;;;;;193.85;35.80;;;;;;;2.23;100.00;100075.25;5050678;28;20035;-73
2021/12/27 06:56:12;;;;;;;145.05;35.85;;;;;;;2.23;100.00;100072.63;5052040;28;20426;-77
2021/12/27 06:58:38;;;;;;;143.38;34.95;;;;;;;2.23;100.00;100077.03;5050344;28;20021;-77
2021/12/27 07:01:04;;;;;;;137.55;35.45;;;;;;;2.20;100.00;100072.81;5052162;28;20033;-77
2021/12/27 07:03:29;;;;;;;147.38;35.85;;;;;;;2.20;100.00;100069.38;5051301;28;20457;-74
2021/12/27 07:05:55;;;;;;;217.70;35.97;;;;;;;2.20;100.00;100064.13;5052195;28;20476;-75
2021/12/27 07:08:22;;;;;;;142.30;34.00;;;;;;;2.18;100.00;100058.97;5052231;28;20036;-73
2021/12/27 07:10:48;;;;;;;139.40;35.85;;;;;;;2.19;100.00;100059.81;5050242;28;20637;-75
2021/12/27 07:13:13;;;;;;;175.75;37.13;;;;;;;2.19;100.00;100057.19;5052392;28;20029;-73
2021/12/27 07:15:41;;;;;;;151.50;38.83;;;;;;;2.19;100.00;100055.41;5050508;28;20469;-73
2021/12/27 07:18:16;;;;;;;149.80;35.47;;;;;;;2.19;100.00;100058.00;5051088;28;20126;-73
2021/12/27 07:20:41;;;;;;;136.68;34.88;;;;;;;2.19;100.00;100060.63;5052804;28;20027;-74
2021/12/27 07:23:07;;;;;;;154.10;37.08;;;;;;;2.21;100.00;100056.16;5052334;28;20037;-74
2021/12/27 07:25:34;;;;;;;145.75;37.28;;;;;;;2.24;100.00;100049.81;5051276;28;20041;-74
2021/12/27 07:27:59;;;;;;;185.73;36.97;;;;;;;2.25;100.00;100054.13;5051631;28;20025;-74
2021/12/27 07:30:28;;;;;;;187.85;36.88;;;;;;;2.26;100.00;100048.78;5051125;28;20407;-76
2021/12/27 07:32:54;;;;;;;171.45;37.15;;;;;;;2.27;100.00;100041.78;5050527;28;20485;-75
2021/12/27 07:35:20;;;;;;;150.02;35.38;;;;;;;2.25;100.00;100041.84;5051950;28;20125;-74
2021/12/27 07:37:45;;;;;;;166.65;35.83;;;;;;;2.24;100.00;100039.31;5051448;28;20037;-72
2021/12/27 07:40:11;;;;;;;139.65;34.55;;;;;;;2.23;100.00;100035.88;5051814;28;20112;-71
2021/12/27 07:42:37;;;;;;;160.98;36.38;;;;;;;2.23;100.00;100043.75;5053944;28;20389;-72
2021/12/27 07:45:03;;;;;;;167.43;36.15;;;;;;;2.26;100.00;100045.34;5055601;28;20075;-74
2021/12/27 07:47:29;;;;;;;163.43;37.47;;;;;;;2.27;100.00;100047.84;5055474;28;20397;-74
2021/12/27 07:49:54;;;;;;;161.65;38.03;;;;;;;2.31;100.00;100042.38;5055146;28;20131;-76
2021/12/27 07:52:20;;;;;;;148.60;36.17;;;;;;;2.32;100.00;100039.66;5055607;28;20119;-72
2021/12/27 07:54:45;;;;;;;181.52;36.67;;;;;;;2.34;100.00;100043.00;5055025;28;20029;-71
2021/12/27 07:57:11;;;;;;;287.15;39.92;;;;;;;2.36;100.00;100040.28;5055898;28;20056;-73
2021/12/27 07:59:37;;;;;;;154.88;37.20;;;;;;;2.38;100.00;100041.03;5054468;28;20032;-73
2021/12/27 08:02:03;;;;;;;158.60;34.97;;;;;;;2.40;100.00;100036.50;5055462;28;20033;-73
2021/12/27 08:04:28;;;;;;;198.35;37.88;;;;;;;2.42;100.00;100040.69;5055494;28;20090;-72
2021/12/27 08:06:54;;;;;;;209.13;37.53;;;;;;;2.46;100.00;100036.06;5054900;28;20040;-73
2021/12/27 08:09:19;;;;;;;226.43;39.38;;;;;;;2.50;100.00;100027.03;5055381;28;20116;-78
2021/12/27 08:11:45;;;;;;;203.90;43.28;;;;;;;2.54;100.00;100035.53;5055264;28;20036;-72
2021/12/27 08:14:10;;;;;;;178.85;39.78;;;;;;;2.58;100.00;100029.13;5055331;28;20086;-72
2021/12/27 08:16:36;;;;;;;175.80;41.63;;;;;;;2.61;100.00;100028.91;5054848;28;20465;-75
2021/12/27 08:19:01;;;;;;;179.00;38.00;;;;;;;2.65;100.00;100030.38;5033675;28;20060;-73
2021/12/27 08:21:29;;;;;;;207.80;38.30;;;;;;;2.68;100.00;100029.31;5052394;28;20063;-73
2021/12/27 08:23:54;;;;;;;193.27;39.75;;;;;;;2.72;100.00;100025.53;5050449;28;20119;-77
2021/12/27 08:26:20;;;;;;;190.63;39.33;;;;;;;2.76;100.00;100019.09;5052322;28;20108;-77
2021/12/27 08:28:49;;;;;;;170.65;38.83;;;;;;;2.81;100.00;100009.13;5051668;28;20037;-76
2021/12/27 08:31:15;;;;;;;177.45;39.08;;;;;;;2.87;100.00;100010.47;5051923;28;20029;-77
2021/12/27 08:33:40;;;;;;;188.40;38.88;;;;;;;2.93;100.00;100015.28;5051775;28;20087;-77
2021/12/27 08:36:05;;;;;;;228.70;39.70;;;;;;;2.98;100.00;100010.53;5052165;28;20037;-75
2021/12/27 08:38:31;;;;;;;229.20;38.45;;;;;;;3.03;100.00;100012.81;5050918;28;20433;-77
2021/12/27 08:40:57;;;;;;;190.05;39.35;;;;;;;3.08;100.00;100014.19;5051683;28;20037;-77
2021/12/27 08:43:22;;;;;;;183.30;37.08;;;;;;;3.14;100.00;100012.91;5051575;28;20037;-76
2021/12/27 08:45:50;;;;;;;179.82;36.03;;;;;;;3.18;100.00;100006.47;5051292;28;20033;-77
2021/12/27 08:48:15;;;;;;;196.27;38.83;;;;;;;3.21;100.00;99998.34;5051511;28;20060;-75
2021/12/27 08:50:42;;;;;;;179.52;37.75;;;;;;;3.27;100.00;99997.03;5050607;28;20477;-79
2021/12/27 08:53:07;;;;;;;174.43;36.38;;;;;;;3.32;100.00;100000.19;5050624;28;20436;-79
2021/12/27 08:55:34;;;;;;;207.45;39.90;;;;;;;3.37;100.00;99978.81;5050411;28;20029;-77
2021/12/27 08:58:00;;;;;;;200.63;42.85;;;;;;;3.41;100.00;99981.09;5046990;28;20044;-77
2021/12/27 09:00:26;;;;;;;209.18;37.20;;;;;;;3.47;100.00;99979.81;5037468;28;20041;-75
2021/12/27 09:02:51;;;;;;;291.98;40.92;;;;;;;3.52;100.00;99975.03;5051438;28;20478;-75
2021/12/27 09:05:16;;;;;;;244.73;37.35;;;;;;;3.58;100.00;99981.63;5050981;28;20041;-78
2021/12/27 09:07:42;;;;;;;237.70;36.25;;;;;;;3.61;100.00;99981.41;5052169;28;20029;-81
2021/12/27 09:10:09;;;;;;;191.07;38.83;;;;;;;3.61;100.00;99992.75;5050859;28;20412;-75
2021/12/27 09:12:41;;;;;;;186.07;40.97;;;;;;;3.65;100.00;99998.63;5051560;28;20083;-75
2021/12/27 09:15:08;;;;;;;190.82;39.47;;;;;;;3.69;100.00;100006.19;5049078;28;20427;-75
2021/12/27 09:17:34;;;;;;;207.32;37.40;;;;;;;3.73;100.00;100013.84;5051774;28;20031;-79
2021/12/27 09:19:59;;;;;;;189.38;34.92;;;;;;;3.77;100.00;100018.75;5050960;28;20024;-75
2021/12/27 09:22:25;;;;;;;223.38;36.95;;;;;;;3.79;100.00;100018.63;5051625;28;20465;-77
2021/12/27 09:24:50;;;;;;;301.90;40.03;;;;;;;3.80;100.00;100022.97;5051284;28;20036;-77
2021/12/27 09:27:17;;;;;;;232.07;39.72;;;;;;;3.82;100.00;100027.16;5051825;28;20200;-77
2021/12/27 09:29:43;;;;;;;157.48;36.30;;;;;;;3.84;100.00;100038.41;5051825;28;20112;-77
2021/12/27 09:32:10;;;;;;;193.73;37.40;;;;;;;3.86;100.00;100031.22;5051433;28;20033;-76
2021/12/27 09:34:36;;;;;;;207.63;38.63;;;;;;;3.86;100.00;100014.59;5051985;28;20041;-77
2021/12/27 09:37:02;;;;;;;219.45;41.15;;;;;;;3.87;100.00;100014.47;5050354;28;20037;-78
2021/12/27 09:39:27;;;;;;;169.50;36.83;;;;;;;3.88;100.00;100008.28;5051761;28;20044;-81
2021/12/27 09:41:53;;;;;;;360.85;39.72;;;;;;;3.89;100.00;100007.28;5050130;28;20032;-75
2021/12/27 09:44:18;;;;;;;162.85;35.13;;;;;;;3.89;100.00;100002.03;5052028;28;20466;-79
2021/12/27 09:46:44;;;;;;;195.20;36.28;;;;;;;3.93;100.00;100004.47;5052394;28;20059;-77
2021/12/27 09:49:12;;;;;;;175.27;35.00;;;;;;;3.94;100.00;99993.81;5011785;28;1132909;-79
2021/12/27 09:51:40;;;;;;;165.77;34.75;;;;;;;3.97;100.00;99983.06;5052737;28;20044;-80
2021/12/27 09:54:06;;;;;;;163.15;36.42;;;;;;;4.01;100.00;99984.47;5051866;28;20055;-77
2021/12/27 09:56:31;;;;;;;255.90;38.33;;;;;;;4.05;100.00;99983.28;5052220;28;20033;-79
2021/12/27 09:58:57;;;;;;;283.42;37.63;;;;;;;4.09;100.00;99969.88;5051856;28;20461;-77
2021/12/27 10:01:22;;;;;;;162.50;33.63;;;;;;;4.14;100.00;99963.31;5052607;28;20112;-77
2021/12/27 10:03:52;;;;;;;157.85;35.25;;;;;;;4.18;100.00;99972.66;5051282;28;20033;-78
2021/12/27 10:06:19;;;;;;;198.70;35.63;;;;;;;4.24;100.00;99953.75;5052388;28;20040;-77
2021/12/27 10:08:50;;;;;;;195.10;34.95;;;;;;;4.35;100.00;99952.06;5052186;28;20028;-74
2021/12/27 10:11:25;;;;;;;;;;;;;;;4.41;100.00;99960.31;5052323;28;20036;-76
2021/12/27 10:14:09;;;;;;;149.18;31.13;;;;;;;4.45;100.00;99960.91;5051715;28;19920;-76
2021/12/27 10:16:46;;;;;;;167.40;33.55;;;;;;;4.46;100.00;99967.84;5052076;28;20037;-76
2021/12/27 10:19:15;;;;;;;182.73;33.58;;;;;;;4.46;100.00;99961.75;5051493;28;20033;-75
2021/12/27 10:21:41;;;;;;;207.52;34.60;;;;;;;4.44;100.00;99958.41;5051712;28;20048;-76
2021/12/27 10:24:15;;;;;;;234.98;33.75;;;;;;;4.42;100.00;99976.97;5049503;28;20041;-75
2021/12/27 10:26:46;;;;;;;170.25;33.17;;;;;;;4.39;100.00;99967.50;5052159;28;20035;-77
2021/12/27 10:29:16;;;;;;;182.90;32.97;;;;;;;4.41;100.00;99983.19;5051354;28;20024;-78
2021/12/27 10:31:59;;;;;;;130.40;30.40;;;;;;;4.41;100.00;99970.00;5051983;28;20028;-77
2021/12/27 10:34:34;;;;;;;161.30;29.13;;;;;;;4.47;100.00;99960.78;5051607;28;20033;-75
2021/12/27 10:37:22;;;;;;;145.38;30.02;;;;;;;4.53;100.00;99961.13;5051538;28;20069;-75
2021/12/27 10:39:58;;;;;;;140.32;29.40;;;;;;;4.60;100.00;99958.88;5051397;28;20029;-73
2021/12/27 10:42:25;;;;;;;138.77;29.92;;;;;;;4.63;100.00;99963.03;5051918;28;20058;-74
2021/12/27 10:44:53;;;;;;;138.65;28.27;;;;;;;4.63;100.00;99961.25;5051379;28;20021;-79
2021/12/27 10:47:43;;;;;;;133.50;27.98;;;;;;;4.64;100.00;99957.63;5051596;28;20465;-76
2021/12/27 10:50:13;;;;;;;136.57;26.83;;;;;;;4.69;100.00;99954.66;5051150;28;20053;-77
2021/12/27 10:52:49;;;;;;;137.23;27.75;;;;;;;4.73;100.00;99958.69;5051388;28;20033;-77
2021/12/27 10:55:18;;;;;;;113.65;26.35;;;;;;;4.75;100.00;99951.53;5051262;28;20064;-77
2021/12/27 10:57:44;;;;;;;137.02;27.20;;;;;;;4.77;100.00;99946.97;5051833;28;20032;-77
2021/12/27 11:00:25;;;;;;;131.77;28.33;;;;;;;4.81;100.00;99955.44;5051668;28;20381;-77
2021/12/27 11:02:51;;;;;;;116.93;27.73;;;;;;;4.84;100.00;99945.50;5051993;28;20029;-77
2021/12/27 11:05:23;;;;;;;113.05;27.02;;;;;;;4.90;100.00;99946.81;5051546;28;20040;-78
2021/12/27 11:07:51;;;;;;;129.05;27.88;;;;;;;4.94;100.00;99943.81;5052348;28;20029;-78
2021/12/27 11:10:16;;;;;;;113.82;26.02;;;;;;;4.98;100.00;99936.47;5051096;28;20124;-78